createdAt,value
2023-08-05T00:01:03.934Z,9.13
2023-08-05T00:03:30.759Z,9.30
2023-08-05T00:06:02.334Z,9.38
2023-08-05T00:08:29.073Z,9.45
2023-08-05T00:10:55.818Z,10.07
2023-08-05T00:13:22.718Z,9.50
2023-08-05T00:15:51.639Z,9.68
2023-08-05T00:18:18.391Z,9.48
2023-08-05T00:20:45.166Z,9.70
2023-08-05T00:23:11.953Z,9.65
2023-08-05T00:25:38.702Z,9.13
2023-08-05T00:28:05.629Z,9.15
2023-08-05T00:30:32.362Z,9.05
2023-08-05T00:32:59.011Z,8.50
2023-08-05T00:35:26.396Z,9.05
2023-08-05T00:37:53.432Z,8.70
2023-08-05T00:40:20.213Z,8.50
2023-08-05T00:42:49.895Z,9.40
2023-08-05T00:45:18.967Z,8.98
2023-08-05T00:47:45.719Z,9.00
2023-08-05T00:50:12.487Z,8.80
2023-08-05T00:52:41.474Z,8.60
2023-08-05T00:55:08.399Z,8.55
2023-08-05T00:57:35.377Z,9.25
2023-08-05T01:00:02.471Z,9.10
2023-08-05T01:02:29.408Z,9.02
2023-08-05T01:04:56.240Z,9.40
2023-08-05T01:07:23.009Z,9.25
2023-08-05T01:09:52.615Z,8.35
2023-08-05T01:12:21.502Z,9.20
2023-08-05T01:14:48.212Z,9.90
2023-08-05T01:17:18.637Z,9.45
2023-08-05T01:19:45.398Z,8.75
2023-08-05T01:22:31.864Z,8.65
2023-08-05T01:25:01.317Z,9.13
2023-08-05T01:27:28.023Z,8.70
2023-08-05T01:29:56.986Z,9.02
2023-08-05T01:32:23.737Z,9.02
2023-08-05T01:34:50.789Z,8.80
2023-08-05T01:37:21.019Z,9.27
2023-08-05T01:39:48.746Z,9.13
2023-08-05T01:42:15.522Z,8.70
2023-08-05T01:44:42.233Z,9.25
2023-08-05T01:47:11.104Z,9.13
2023-08-05T01:49:42.519Z,8.73
2023-08-05T01:52:11.375Z,8.77
2023-08-05T01:54:40.402Z,8.77
2023-08-05T01:57:07.554Z,8.15
2023-08-05T01:59:34.363Z,8.35
2023-08-05T02:02:03.387Z,8.38
2023-08-05T02:04:32.326Z,8.55
2023-08-05T02:06:59.062Z,8.77
2023-08-05T02:09:25.748Z,8.60
2023-08-05T02:11:52.603Z,8.50
2023-08-05T02:14:21.537Z,8.65
2023-08-05T02:16:51.572Z,8.75
2023-08-05T02:19:18.555Z,8.70
2023-08-05T02:21:45.219Z,8.57
2023-08-05T02:24:12.486Z,8.80
2023-08-05T02:26:39.267Z,8.60
2023-08-05T02:29:05.959Z,8.73
2023-08-05T02:31:32.674Z,8.50
2023-08-05T02:34:02.215Z,8.50
2023-08-05T02:36:28.955Z,8.70
2023-08-05T02:38:56.696Z,8.38
2023-08-05T02:41:23.447Z,8.95
2023-08-05T02:43:50.170Z,8.88
2023-08-05T02:46:16.937Z,8.48
2023-08-05T02:48:43.648Z,8.57
2023-08-05T02:51:10.488Z,8.82
2023-08-05T02:53:37.203Z,8.68
2023-08-05T02:56:06.301Z,8.20
2023-08-05T02:58:33.290Z,8.82
2023-08-05T03:01:11.439Z,8.05
2023-08-05T03:03:38.307Z,9.25
2023-08-05T03:06:05.466Z,8.98
2023-08-05T03:08:34.627Z,8.50
2023-08-05T03:11:01.854Z,8.57
2023-08-05T03:13:28.635Z,8.55
2023-08-05T03:15:55.420Z,8.70
2023-08-05T03:18:24.686Z,8.48
2023-08-05T03:20:51.383Z,8.50
2023-08-05T03:23:18.175Z,8.25
2023-08-05T03:25:44.879Z,8.93
2023-08-05T03:28:11.587Z,8.77
2023-08-05T03:30:38.289Z,8.40
2023-08-05T03:33:07.245Z,8.32
2023-08-05T03:35:34.000Z,7.80
2023-08-05T03:38:01.215Z,8.38
2023-08-05T03:40:28.000Z,8.60
2023-08-05T03:42:55.179Z,8.20
2023-08-05T03:45:22.033Z,8.70
2023-08-05T03:47:51.310Z,8.07
2023-08-05T03:50:18.418Z,8.40
2023-08-05T03:52:45.681Z,8.00
2023-08-05T03:55:12.483Z,8.15
2023-08-05T03:57:39.181Z,8.70
2023-08-05T04:00:06.571Z,8.77
2023-08-05T04:02:35.619Z,8.18
2023-08-05T04:05:04.896Z,8.27
2023-08-05T04:07:35.267Z,8.27
2023-08-05T04:10:05.198Z,8.30
2023-08-05T04:12:34.175Z,7.85
2023-08-05T04:15:01.008Z,8.32
2023-08-05T04:17:30.632Z,8.27
2023-08-05T04:19:57.676Z,8.30
2023-08-05T04:22:26.579Z,8.48
2023-08-05T04:24:54.269Z,8.20
2023-08-05T04:27:23.287Z,8.70
2023-08-05T04:29:50.378Z,8.15
2023-08-05T04:32:17.132Z,8.25
2023-08-05T04:34:45.193Z,8.35
2023-08-05T04:37:22.505Z,8.05
2023-08-05T04:39:50.060Z,8.50
2023-08-05T04:42:19.055Z,8.18
2023-08-05T04:44:46.954Z,8.70
2023-08-05T04:47:13.785Z,8.30
2023-08-05T04:49:42.666Z,8.75
2023-08-05T04:52:09.512Z,8.35
2023-08-05T04:54:43.000Z,7.97
2023-08-05T04:57:09.789Z,8.30
2023-08-05T04:59:36.519Z,7.88
2023-08-05T05:02:06.478Z,7.63
2023-08-05T05:04:33.228Z,7.47
2023-08-05T05:07:02.098Z,8.48
2023-08-05T05:09:33.582Z,7.45
2023-08-05T05:12:01.446Z,8.63
2023-08-05T05:14:28.149Z,8.35
2023-08-05T05:16:54.942Z,8.32
2023-08-05T05:19:21.719Z,7.90
2023-08-05T05:21:51.676Z,8.18
2023-08-05T05:24:19.291Z,7.93
2023-08-05T05:26:46.057Z,10.93
2023-08-05T05:29:15.038Z,9.00
2023-08-05T05:31:41.805Z,9.32
2023-08-05T05:34:08.849Z,8.27
2023-08-05T05:36:40.272Z,8.55
2023-08-05T05:39:09.574Z,8.38
2023-08-05T05:41:36.562Z,7.88
2023-08-05T05:44:05.329Z,8.13
2023-08-05T05:46:35.119Z,7.35
2023-08-05T05:49:02.616Z,7.90
2023-08-05T05:51:31.880Z,7.65
2023-08-05T05:54:01.019Z,7.47
2023-08-05T05:56:30.028Z,7.90
2023-08-05T05:58:56.768Z,8.43
2023-08-05T06:01:24.727Z,8.35
2023-08-05T06:03:54.353Z,8.07
2023-08-05T06:06:21.519Z,8.00
2023-08-05T06:08:48.311Z,8.05
2023-08-05T06:11:15.372Z,8.43
2023-08-05T06:13:44.359Z,8.30
2023-08-05T06:16:13.439Z,8.25
2023-08-05T06:18:42.332Z,8.32
2023-08-05T06:21:09.130Z,8.52
2023-08-05T06:23:35.910Z,8.65
2023-08-05T06:26:02.687Z,8.88
2023-08-05T06:28:29.388Z,8.48
2023-08-05T06:30:56.680Z,9.05
2023-08-05T06:33:25.849Z,9.25
2023-08-05T06:35:52.581Z,8.82
2023-08-05T06:38:19.425Z,8.82
2023-08-05T06:40:49.631Z,8.48
2023-08-05T06:43:16.641Z,8.73
2023-08-05T06:45:45.523Z,8.73
2023-08-05T06:48:12.206Z,8.95
2023-08-05T06:50:38.987Z,9.50
2023-08-05T06:53:05.857Z,14.75
2023-08-05T06:55:32.621Z,22.90
2023-08-05T06:57:59.409Z,20.45
2023-08-05T07:00:28.833Z,17.23
2023-08-05T07:02:55.638Z,19.80
2023-08-05T07:05:22.408Z,20.00
2023-08-05T07:07:52.203Z,19.33
2023-08-05T07:12:46.676Z,17.48
2023-08-05T07:15:13.457Z,16.52
2023-08-05T07:17:40.305Z,16.20
2023-08-05T07:20:07.971Z,13.68
2023-08-05T07:22:36.205Z,12.15
2023-08-05T07:25:05.431Z,12.88
2023-08-05T07:27:34.418Z,12.07
2023-08-05T07:30:03.403Z,11.13
2023-08-05T07:32:31.543Z,10.80
2023-08-05T07:35:00.754Z,10.70
2023-08-05T07:37:27.909Z,10.30
2023-08-05T07:39:54.681Z,10.80
2023-08-05T07:42:23.992Z,10.88
2023-08-05T07:44:53.543Z,10.75
2023-08-05T07:47:20.533Z,11.10
2023-08-05T07:49:47.366Z,10.52
2023-08-05T07:52:15.839Z,10.55
2023-08-05T07:54:46.792Z,10.55
2023-08-05T07:57:15.689Z,10.48
2023-08-05T07:59:42.410Z,10.13
2023-08-05T08:02:11.509Z,9.68
2023-08-05T08:04:38.324Z,10.18
2023-08-05T08:07:06.044Z,9.93
2023-08-05T08:09:33.124Z,10.75
2023-08-05T08:11:59.959Z,9.25
2023-08-05T08:14:29.033Z,9.82
2023-08-05T08:16:55.875Z,9.25
2023-08-05T08:19:24.246Z,9.82
2023-08-05T08:21:51.294Z,9.65
2023-08-05T08:24:21.818Z,10.13
2023-08-05T08:26:52.423Z,10.13
2023-08-05T08:29:21.507Z,9.70
2023-08-05T08:31:48.286Z,9.88
2023-08-05T08:34:15.093Z,9.52
2023-08-05T08:36:44.423Z,9.65
2023-08-05T08:39:11.245Z,10.30
2023-08-05T08:41:42.793Z,9.32
2023-08-05T08:44:12.431Z,10.13
2023-08-05T08:46:41.378Z,9.55
2023-08-05T08:49:08.482Z,9.60
2023-08-05T08:51:35.196Z,9.15
2023-08-05T08:54:04.690Z,9.15
2023-08-05T08:56:33.321Z,9.15
2023-08-05T08:59:02.212Z,10.13
2023-08-05T09:01:29.035Z,9.88
2023-08-05T09:03:58.032Z,9.88
2023-08-05T09:06:25.083Z,10.55
2023-08-05T09:08:54.154Z,10.68
2023-08-05T09:11:20.955Z,10.77
2023-08-05T09:13:47.705Z,10.35
2023-08-05T09:16:19.736Z,9.90
2023-08-05T09:19:00.170Z,10.38
2023-08-05T09:21:30.321Z,10.50
2023-08-05T09:23:59.795Z,11.27
2023-08-05T09:26:30.286Z,10.77
2023-08-05T09:28:57.554Z,11.23
2023-08-05T09:31:24.429Z,11.30
2023-08-05T09:33:51.197Z,11.82
2023-08-05T09:36:18.475Z,11.90
2023-08-05T09:38:46.352Z,11.07
2023-08-05T09:41:13.121Z,11.48
2023-08-05T09:43:46.885Z,11.25
2023-08-05T09:46:13.698Z,10.70
2023-08-05T09:48:44.338Z,11.02
2023-08-05T09:51:20.033Z,12.05
2023-08-05T09:53:50.653Z,10.95
2023-08-05T09:56:21.653Z,11.30
2023-08-05T09:58:49.473Z,11.18
2023-08-05T10:01:16.251Z,11.05
2023-08-05T10:03:43.043Z,11.20
2023-08-05T10:06:10.349Z,11.48
2023-08-05T10:08:37.680Z,11.13
2023-08-05T10:11:05.234Z,11.50
2023-08-05T10:13:37.337Z,11.57
2023-08-05T10:16:04.289Z,11.32
2023-08-05T10:18:30.995Z,11.07
2023-08-05T10:20:57.840Z,10.35
2023-08-05T10:23:29.853Z,11.45
2023-08-05T10:26:00.888Z,10.82
2023-08-05T10:28:27.640Z,10.70
2023-08-05T10:30:57.634Z,10.63
2023-08-05T10:33:27.001Z,9.90
2023-08-05T10:36:01.852Z,10.27
2023-08-05T10:38:29.117Z,10.63
2023-08-05T10:41:05.785Z,11.43
2023-08-05T10:43:32.713Z,10.30
2023-08-05T10:46:08.876Z,10.95
2023-08-05T10:48:51.343Z,10.48
2023-08-05T10:51:26.277Z,9.77
2023-08-05T10:53:52.989Z,10.32
2023-08-05T10:56:19.813Z,9.98
2023-08-05T10:58:52.971Z,12.00
2023-08-05T11:01:19.840Z,10.38
2023-08-05T11:03:51.706Z,10.50
2023-08-05T11:06:25.563Z,10.27
2023-08-05T11:08:52.447Z,9.90
2023-08-05T11:11:20.109Z,11.02
2023-08-05T11:13:47.976Z,10.60
2023-08-05T11:16:18.322Z,10.27
2023-08-05T11:18:57.044Z,10.65
2023-08-05T11:21:23.954Z,10.73
2023-08-05T11:23:50.700Z,10.73
2023-08-05T11:26:20.990Z,10.30
2023-08-05T11:28:47.845Z,10.90
2023-08-05T11:31:24.727Z,9.90
2023-08-05T11:33:52.353Z,10.55
2023-08-05T11:36:29.215Z,9.82
2023-08-05T11:39:02.020Z,9.95
2023-08-05T11:41:28.915Z,10.90
2023-08-05T11:43:56.028Z,10.18
2023-08-05T11:46:31.031Z,9.85
2023-08-05T11:49:10.831Z,10.88
2023-08-05T11:51:54.563Z,10.32
2023-08-05T11:54:33.224Z,10.82
2023-08-05T11:57:00.138Z,10.27
2023-08-05T11:59:49.619Z,10.30
2023-08-05T12:02:17.574Z,10.20
2023-08-05T12:04:48.871Z,9.95
2023-08-05T12:07:19.707Z,10.20
2023-08-05T12:12:18.069Z,9.90
2023-08-05T12:14:45.079Z,10.07
2023-08-05T12:17:11.971Z,10.40
2023-08-05T12:19:42.866Z,10.43
2023-08-05T12:24:36.290Z,9.27
2023-08-05T12:27:03.111Z,9.68
2023-08-05T12:29:32.072Z,9.73
2023-08-05T12:31:58.982Z,10.02
2023-08-05T12:34:25.640Z,10.27
2023-08-05T12:36:52.315Z,10.00
2023-08-05T12:39:19.175Z,9.60
2023-08-05T12:41:46.119Z,9.98
2023-08-05T12:44:15.042Z,9.75
2023-08-05T12:46:41.762Z,9.88
2023-08-05T12:49:08.426Z,10.50
2023-08-05T12:51:35.260Z,9.98
2023-08-05T12:54:01.962Z,9.60
2023-08-05T12:56:28.681Z,9.30
2023-08-05T12:58:55.445Z,10.25
2023-08-05T13:01:22.172Z,10.02
2023-08-05T13:03:48.965Z,10.02
2023-08-05T13:06:15.750Z,9.88
2023-08-05T13:08:42.579Z,10.05
2023-08-05T13:11:09.269Z,10.00
2023-08-05T13:13:36.014Z,10.02
2023-08-05T13:16:02.887Z,10.32
2023-08-05T13:18:31.738Z,10.23
2023-08-05T13:20:58.406Z,11.00
2023-08-05T13:23:27.442Z,10.27
2023-08-05T13:25:54.132Z,9.90
2023-08-05T13:28:20.810Z,10.15
2023-08-05T13:30:47.645Z,10.07
2023-08-05T13:33:14.300Z,9.60
2023-08-05T13:35:41.100Z,9.43
2023-08-05T13:38:07.947Z,9.75
2023-08-05T13:40:36.826Z,9.45
2023-08-05T13:43:03.536Z,10.18
2023-08-05T13:45:30.313Z,9.07
2023-08-05T13:47:56.984Z,9.07
2023-08-05T13:50:24.288Z,8.95
2023-08-05T13:52:54.167Z,9.30
2023-08-05T13:55:20.907Z,8.85
2023-08-05T13:57:48.902Z,9.32
2023-08-05T14:00:17.204Z,8.93
2023-08-05T14:02:44.114Z,8.80
2023-08-05T14:05:11.069Z,8.30
2023-08-05T14:07:37.779Z,8.25
2023-08-05T14:10:07.275Z,8.23
2023-08-05T14:12:33.954Z,9.05
2023-08-05T14:15:01.204Z,8.70
2023-08-05T14:17:28.004Z,8.13
2023-08-05T14:19:57.004Z,8.02
2023-08-05T14:22:23.771Z,8.52
2023-08-05T14:24:50.470Z,7.82
2023-08-05T14:27:17.142Z,7.95
2023-08-05T14:29:43.813Z,7.65
2023-08-05T14:32:10.733Z,7.70
2023-08-05T14:34:37.470Z,8.15
2023-08-05T14:37:04.499Z,7.88
2023-08-05T14:39:32.240Z,8.00
2023-08-05T14:41:59.124Z,7.75
2023-08-05T14:44:25.830Z,7.95
2023-08-05T14:46:52.559Z,8.05
2023-08-05T14:49:19.308Z,7.38
2023-08-05T14:51:46.073Z,7.78
2023-08-05T14:54:14.920Z,8.15
2023-08-05T14:56:43.049Z,7.47
2023-08-05T14:59:11.306Z,7.60
2023-08-05T15:01:38.332Z,7.63
2023-08-05T15:04:05.237Z,7.70
2023-08-05T15:06:34.214Z,7.85
2023-08-05T15:09:03.273Z,7.90
2023-08-05T15:11:30.576Z,7.57
2023-08-05T15:13:57.274Z,7.25
2023-08-05T15:16:24.060Z,7.18
2023-08-05T15:18:50.816Z,7.70
2023-08-05T15:21:17.518Z,7.50
2023-08-05T15:23:44.254Z,7.25
2023-08-05T15:26:10.977Z,7.30
2023-08-05T15:28:37.701Z,8.05
2023-08-05T15:31:04.513Z,7.55
2023-08-05T15:33:31.342Z,8.05
2023-08-05T15:36:00.221Z,7.80
2023-08-05T15:38:26.912Z,7.20
2023-08-05T15:41:00.347Z,7.47
2023-08-05T15:43:29.321Z,7.72
2023-08-05T15:45:59.821Z,7.40
2023-08-05T15:48:28.816Z,7.53
2023-08-05T15:50:59.757Z,8.15
2023-08-05T15:53:26.489Z,7.90
2023-08-05T15:56:02.209Z,8.13
2023-08-05T15:58:32.313Z,8.07
2023-08-05T16:01:02.513Z,7.80
2023-08-05T16:03:29.367Z,8.02
2023-08-05T16:06:09.474Z,8.40
2023-08-05T16:08:38.472Z,8.10
2023-08-05T16:11:09.459Z,8.20
2023-08-05T16:13:38.364Z,8.55
2023-08-05T16:16:23.222Z,8.32
2023-08-05T16:18:49.982Z,8.52
2023-08-05T16:21:24.035Z,9.07
2023-08-05T16:23:58.642Z,8.30
2023-08-05T16:26:26.181Z,8.32
2023-08-05T16:28:53.557Z,8.77
2023-08-05T16:31:25.141Z,8.50
2023-08-05T16:33:54.430Z,8.77
2023-08-05T16:36:23.405Z,8.85
2023-08-05T16:38:52.850Z,8.35
2023-08-05T16:41:19.751Z,8.80
2023-08-05T16:43:46.507Z,9.48
2023-08-05T16:46:13.596Z,9.13
2023-08-05T16:48:40.376Z,9.00
2023-08-05T16:51:07.122Z,9.48
2023-08-05T16:53:34.509Z,9.23
2023-08-05T16:56:05.253Z,10.23
2023-08-05T16:58:32.285Z,9.27
2023-08-05T17:00:59.150Z,9.95
2023-08-05T17:03:25.973Z,9.25
2023-08-05T17:05:53.645Z,9.63
2023-08-05T17:08:20.964Z,9.50
2023-08-05T17:10:47.817Z,10.05
2023-08-05T17:13:19.293Z,10.13
2023-08-05T17:15:46.354Z,10.20
2023-08-05T17:18:13.723Z,9.70
2023-08-05T17:20:40.775Z,9.45
2023-08-05T17:23:11.320Z,9.52
2023-08-05T17:25:41.860Z,9.77
2023-08-05T17:28:09.199Z,9.45
2023-08-05T17:30:36.126Z,9.75
2023-08-05T17:33:03.275Z,10.25
2023-08-05T17:35:31.348Z,10.00
2023-08-05T17:37:59.349Z,10.20
2023-08-05T17:40:26.631Z,10.40
2023-08-05T17:42:53.363Z,9.88
2023-08-05T17:45:20.074Z,9.55
2023-08-05T17:47:46.978Z,9.30
2023-08-05T17:50:13.850Z,9.63
2023-08-05T17:52:42.727Z,10.15
2023-08-05T17:55:12.206Z,9.73
2023-08-05T17:57:38.935Z,9.60
2023-08-05T18:00:06.312Z,10.70
2023-08-05T18:02:33.159Z,10.25
2023-08-05T18:04:59.894Z,9.95
2023-08-05T18:07:26.695Z,9.50
2023-08-05T18:09:53.489Z,9.70
2023-08-05T18:12:20.206Z,10.02
2023-08-05T18:14:49.200Z,10.00
2023-08-05T18:17:16.311Z,10.48
2023-08-05T18:19:43.107Z,11.25
2023-08-05T18:22:09.979Z,10.25
2023-08-05T18:24:36.696Z,9.98
2023-08-05T18:27:03.695Z,10.88
2023-08-05T18:29:32.620Z,10.20
2023-08-05T18:32:00.093Z,10.63
2023-08-05T18:34:26.867Z,10.68
2023-08-05T18:36:53.550Z,10.10
2023-08-05T18:39:22.432Z,10.52
2023-08-05T18:41:51.701Z,12.05
2023-08-05T18:44:18.829Z,11.80
2023-08-05T18:46:48.403Z,11.25
2023-08-05T18:49:15.094Z,11.10
2023-08-05T18:51:42.029Z,11.18
2023-08-05T18:54:08.973Z,11.98
2023-08-05T18:56:37.983Z,11.70
2023-08-05T18:59:04.765Z,10.45
2023-08-05T19:01:31.647Z,9.80
2023-08-05T19:03:58.498Z,8.82
2023-08-05T19:06:25.867Z,8.25
2023-08-05T19:08:54.709Z,6.10
2023-08-05T19:11:21.432Z,5.90
2023-08-05T19:13:48.195Z,4.90
2023-08-05T19:16:17.097Z,5.13
2023-08-05T19:18:43.853Z,4.97
2023-08-05T19:21:13.316Z,4.95
2023-08-05T19:23:58.919Z,5.28
2023-08-05T19:26:25.692Z,4.53
2023-08-05T19:28:52.496Z,4.57
2023-08-05T19:31:19.318Z,15.77
2023-08-05T19:33:46.536Z,19.05
2023-08-05T19:36:17.204Z,9.93
2023-08-05T19:38:44.926Z,7.80
2023-08-05T19:41:16.016Z,6.97
2023-08-05T19:43:43.209Z,5.47
2023-08-05T19:46:15.794Z,4.97
2023-08-05T19:48:45.423Z,4.90
2023-08-05T19:51:14.565Z,4.30
2023-08-05T19:53:46.450Z,4.30
2023-08-05T19:56:13.377Z,4.22
2023-08-05T19:58:40.139Z,4.50
2023-08-05T20:01:08.064Z,4.00
2023-08-05T20:03:36.754Z,4.50
2023-08-05T20:06:03.624Z,3.60
2023-08-05T20:08:30.451Z,4.05
2023-08-05T20:10:57.200Z,4.03
2023-08-05T20:13:26.242Z,3.80
2023-08-05T20:15:59.813Z,3.60
2023-08-05T20:18:27.015Z,3.70
2023-08-05T20:20:53.857Z,3.33
2023-08-05T20:23:23.467Z,2.97
2023-08-05T20:25:52.391Z,3.70
2023-08-05T20:28:21.511Z,3.80
2023-08-05T20:30:53.916Z,3.78
2023-08-05T20:33:20.725Z,3.42
2023-08-05T20:35:47.440Z,3.50
2023-08-05T20:38:14.088Z,3.92
2023-08-05T20:40:40.851Z,3.65
2023-08-05T20:43:08.992Z,3.20
2023-08-05T20:45:38.874Z,3.53
2023-08-05T20:48:08.838Z,3.47
2023-08-05T20:50:35.626Z,3.47
2023-08-05T20:53:02.566Z,3.28
2023-08-05T20:55:29.393Z,3.33
2023-08-05T20:57:56.132Z,3.40
2023-08-05T21:00:22.911Z,3.42
2023-08-05T21:02:49.734Z,3.20
2023-08-05T21:05:19.691Z,4.03
2023-08-05T21:07:46.861Z,3.88
2023-08-05T21:10:13.664Z,3.40
2023-08-05T21:12:40.900Z,3.42
2023-08-05T21:15:08.083Z,3.45
2023-08-05T21:17:35.290Z,3.70
2023-08-05T21:20:02.200Z,4.38
2023-08-05T21:22:36.173Z,4.07
2023-08-05T21:25:03.617Z,4.03
2023-08-05T21:27:30.381Z,3.50
2023-08-05T21:29:57.125Z,3.60
2023-08-05T21:32:23.902Z,3.50
2023-08-05T21:34:50.674Z,3.45
2023-08-05T21:37:17.450Z,3.63
2023-08-05T21:39:47.050Z,3.55
2023-08-05T21:42:13.854Z,4.05
2023-08-05T21:44:40.596Z,3.72
2023-08-05T21:47:07.320Z,3.15
2023-08-05T21:49:36.381Z,3.50
2023-08-05T21:52:05.369Z,3.42
2023-08-05T21:54:32.248Z,3.53
2023-08-05T21:56:59.188Z,3.58
2023-08-05T21:59:26.337Z,3.00
2023-08-05T22:01:55.286Z,3.38
2023-08-05T22:04:24.925Z,3.22
2023-08-05T22:06:53.944Z,3.50
2023-08-05T22:09:23.019Z,3.45
2023-08-05T22:11:52.268Z,3.47
2023-08-05T22:14:19.066Z,3.60
2023-08-05T22:16:47.983Z,3.83
2023-08-05T22:19:14.756Z,3.88
2023-08-05T22:21:41.531Z,3.92
2023-08-05T22:24:08.315Z,4.03
2023-08-05T22:26:37.171Z,4.05
2023-08-05T22:29:04.204Z,3.70
2023-08-05T22:31:30.957Z,3.55
2023-08-05T22:33:57.684Z,4.45
2023-08-05T22:36:24.436Z,4.43
2023-08-05T22:38:51.219Z,4.10
2023-08-05T22:41:18.417Z,3.90
2023-08-05T22:43:47.317Z,3.95
2023-08-05T22:46:14.264Z,4.10
2023-08-05T22:48:40.997Z,3.65
2023-08-05T22:51:08.279Z,3.90
2023-08-05T22:53:34.962Z,4.13
2023-08-05T22:56:04.893Z,4.10
2023-08-05T22:58:31.729Z,4.05
2023-08-05T23:01:05.174Z,4.03
2023-08-05T23:03:32.006Z,3.72
2023-08-05T23:05:58.942Z,4.05
2023-08-05T23:08:28.001Z,3.70
2023-08-05T23:10:56.960Z,4.28
2023-08-05T23:13:23.787Z,3.58
2023-08-05T23:15:50.619Z,3.95
2023-08-05T23:18:17.338Z,4.00
2023-08-05T23:20:44.090Z,3.55
2023-08-05T23:23:10.804Z,3.30
2023-08-05T23:25:38.115Z,3.53
2023-08-05T23:28:04.918Z,3.90
2023-08-05T23:30:34.291Z,3.90
2023-08-05T23:33:01.356Z,4.10
2023-08-05T23:35:30.224Z,3.78
2023-08-05T23:37:57.396Z,4.43
2023-08-05T23:40:24.561Z,3.92
2023-08-05T23:42:51.229Z,4.53
2023-08-05T23:45:18.200Z,4.22
2023-08-05T23:47:47.092Z,3.97
2023-08-05T23:50:13.928Z,4.05
2023-08-05T23:52:43.616Z,3.97
2023-08-05T23:55:10.409Z,4.47
2023-08-05T23:57:37.734Z,3.95
